Montecarlo, Argentina
Current Conditions -  °F | °C
As of 3:00 AM on Thursday 29 Jan 2015 (Local Time) from SARI Reporting Station
Scattered Clouds Scattered Clouds  
Wind Chill: 21°   Ceiling: Unl
Heat Index: 21°   Visibility: 5mi
Dew Point: 21°   Wind: 8mph
Humidity: 100%   Direction: 20°NNE
Pressure: 29.85"   Gusts: NA
Location:  26.62°S, 54.75°W
Report Text: SARI 290600Z 02007KT 8000 FEW003 SCT10021/21 Q1011
Loading
Personal Weather Stations






























Interactive Weather Map New forecast layout! Learn more

10-Day Weather Forecast

Advertisements
Track Severe Weather on mobile